Time;durP1;ratioP1;P1;durP2;ratioP2;P2;SDS_P1;SDS_P2;PMS_P1;PMS_P2;Temp;Humidity;BMP_temperature;BMP_pressure;BME280_temperature;BME280_humidity;BME280_pressure;Samples;Min_cycle;Max_cycle;Signal;HPM_P1;HPM_P2
2021/11/23 00:00:23;;;;;;;;;;;7.70;99.90;;;;;;6159813;23;20001;-76
2021/11/23 00:02:49;;;;;;;8.85;4.70;;;7.70;99.90;;;;;;6155836;23;19912;-76
2021/11/23 00:05:15;;;;;;;;;;;7.60;99.90;;;;;;6157847;23;20009;-76
2021/11/23 00:07:41;;;;;;;7.88;4.32;;;7.70;99.90;;;;;;6160699;23;19900;-77
2021/11/23 00:10:08;;;;;;;8.77;4.28;;;7.70;99.90;;;;;;6159111;23;20010;-76
2021/11/23 00:12:34;;;;;;;10.25;5.20;;;7.60;99.90;;;;;;6159915;23;20415;-76
2021/11/23 00:15:00;;;;;;;;;;;7.60;99.90;;;;;;6160520;23;20008;-76
2021/11/23 00:17:26;;;;;;;7.78;4.00;;;7.60;99.90;;;;;;6161012;23;19951;-76
2021/11/23 00:19:51;;;;;;;;;;;7.60;99.90;;;;;;6161380;23;20009;-76
2021/11/23 00:22:17;;;;;;;8.38;4.10;;;7.70;99.90;;;;;;6160384;23;19917;-75
2021/11/23 00:24:44;;;;;;;9.35;4.88;;;7.70;99.90;;;;;;6162177;23;20004;-76
2021/11/23 00:27:10;;;;;;;6.20;3.30;;;7.80;99.90;;;;;;6159632;23;20064;-76
2021/11/23 00:29:35;;;;;;;;;;;7.80;99.90;;;;;;6163702;23;20001;-76
2021/11/23 00:32:02;;;;;;;5.78;3.15;;;7.80;99.90;;;;;;6160035;23;19904;-76
2021/11/23 00:34:28;;;;;;;4.80;2.45;;;8.00;99.90;;;;;;6161112;23;20005;-76
2021/11/23 00:36:54;;;;;;;;;;;8.00;99.90;;;;;;6160347;23;20362;-75
2021/11/23 00:39:21;;;;;;;5.75;2.78;;;8.00;99.90;;;;;;6159251;23;19919;-75
2021/11/23 00:41:50;;;;;;;5.25;2.78;;;8.00;99.90;;;;;;6160931;23;20431;-76
2021/11/23 00:44:18;;;;;;;6.63;3.53;;;8.00;99.90;;;;;;6159860;23;20037;-76
2021/11/23 00:46:44;;;;;;;7.20;3.63;;;7.90;99.90;;;;;;6162906;23;20005;-77
2021/11/23 00:49:10;;;;;;;;;;;7.90;99.90;;;;;;6164668;23;20009;-79
2021/11/23 00:51:36;;;;;;;4.93;2.13;;;8.00;99.90;;;;;;6162361;23;19908;-78
2021/11/23 00:54:02;;;;;;;;;;;7.90;99.90;;;;;;6164102;23;20014;-77
2021/11/23 00:56:27;;;;;;;4.25;2.42;;;7.90;99.90;;;;;;6164466;23;19904;-76
2021/11/23 00:58:53;;;;;;;;;;;7.80;99.90;;;;;;6165867;23;20001;-77
2021/11/23 01:01:19;;;;;;;5.95;2.70;;;7.80;99.90;;;;;;6163729;23;19909;-76
2021/11/23 01:03:44;;;;;;;;;;;7.80;99.90;;;;;;6162120;23;20028;-76
2021/11/23 01:06:10;;;;;;;5.05;1.98;;;7.80;99.90;;;;;;6160239;23;19904;-76
2021/11/23 01:08:39;;;;;;;;;;;7.90;99.90;;;;;;6161990;23;20005;-76
2021/11/23 01:11:06;;;;;;;5.40;1.83;;;7.90;99.90;;;;;;6159599;23;19979;-76
2021/11/23 01:13:32;;;;;;;2.20;1.27;;;8.00;99.90;;;;;;6163411;23;20372;-76
2021/11/23 01:15:57;;;;;;;;;;;8.10;99.90;;;;;;6162636;23;20012;-77
2021/11/23 01:18:23;;;;;;;3.38;1.50;;;8.00;99.90;;;;;;6164159;23;19919;-76
2021/11/23 01:20:48;;;;;;;;;;;8.00;99.90;;;;;;6163846;23;20008;-77
2021/11/23 01:23:14;;;;;;;7.47;2.10;;;8.00;99.90;;;;;;6162471;23;19912;-76
2021/11/23 01:25:40;;;;;;;3.25;1.48;;;8.10;99.90;;;;;;6163081;23;20005;-76
2021/11/23 01:28:06;;;;;;;;;;;8.10;99.20;;;;;;6165374;23;20020;-77
2021/11/23 01:30:32;;;;;;;4.22;1.75;;;8.20;99.40;;;;;;6162781;23;19975;-78
2021/11/23 01:32:57;;;;;;;;;;;8.30;98.90;;;;;;6164986;23;20002;-77
2021/11/23 01:35:23;;;;;;;5.70;2.60;;;8.40;98.30;;;;;;6162439;23;19900;-76
2021/11/23 01:37:49;;;;;;;;;;;8.30;98.50;;;;;;6165122;23;20006;-76
2021/11/23 01:40:17;;;;;;;7.28;2.75;;;8.20;98.80;;;;;;6162863;23;19923;-76
2021/11/23 01:42:43;;;;;;;7.38;3.17;;;8.20;99.40;;;;;;6163101;23;20014;-76
2021/11/23 01:45:09;;;;;;;;;;;8.10;99.90;;;;;;6161054;23;20005;-76
2021/11/23 01:47:35;;;;;;;5.85;2.60;;;8.10;99.90;;;;;;6161345;23;19941;-76
2021/11/23 01:50:01;;;;;;;;;;;8.00;99.90;;;;;;6162293;23;20085;-77
2021/11/23 01:52:26;;;;;;;8.20;4.10;;;8.00;99.90;;;;;;6161022;23;19900;-76
2021/11/23 01:54:52;;;;;;;;;;;8.10;99.90;;;;;;6161620;23;20509;-76
2021/11/23 01:57:19;;;;;;;9.32;4.90;;;8.00;99.90;;;;;;6156799;23;19900;-77
2021/11/23 01:59:47;;;;;;;8.68;5.40;;;7.90;99.90;;;;;;6158990;23;20068;-76
2021/11/23 02:02:13;;;;;;;11.93;6.32;;;7.80;99.90;;;;;;6161466;23;20009;-76
2021/11/23 02:04:40;;;;;;;13.35;7.00;;;7.70;99.90;;;;;;6161449;23;20116;-76
2021/11/23 02:07:06;;;;;;;12.68;6.95;;;7.70;99.90;;;;;;6160958;23;20001;-76
2021/11/23 02:09:32;;;;;;;12.80;7.25;;;7.60;99.90;;;;;;6162919;23;20040;-77
2021/11/23 02:11:58;;;;;;;;;;;7.50;99.90;;;;;;6162548;23;20005;-76
2021/11/23 02:14:26;;;;;;;12.90;7.28;;;7.50;99.90;;;;;;6161564;23;19901;-76
2021/11/23 02:16:52;;;;;;;14.80;8.95;;;7.50;99.90;;;;;;6160971;23;20106;-76
2021/11/23 02:19:18;;;;;;;;;;;7.50;99.90;;;;;;6161816;23;20017;-77
2021/11/23 02:21:43;;;;;;;12.32;6.53;;;7.50;99.90;;;;;;6161753;23;20326;-76
2021/11/23 02:24:09;;;;;;;;;;;7.50;99.90;;;;;;6163804;23;20009;-76
2021/11/23 02:26:34;;;;;;;12.68;7.13;;;7.50;99.90;;;;;;6162001;23;19920;-77
2021/11/23 02:29:00;;;;;;;;;;;7.50;99.90;;;;;;6162188;23;20001;-76
2021/11/23 02:31:26;;;;;;;7.95;4.95;;;7.40;99.90;;;;;;6161816;23;19904;-76
2021/11/23 02:33:51;;;;;;;;;;;7.50;99.90;;;;;;6162361;23;20080;-77
2021/11/23 02:36:18;;;;;;;9.32;5.35;;;7.40;99.90;;;;;;6163312;23;19905;-76
2021/11/23 02:38:46;;;;;;;9.25;5.50;;;7.40;99.90;;;;;;6161562;23;20017;-76
2021/11/23 02:41:13;;;;;;;10.00;5.65;;;7.40;99.90;;;;;;6162759;23;20447;-76
2021/11/23 02:43:40;;;;;;;10.85;6.35;;;7.40;99.90;;;;;;6163156;23;20463;-77
2021/11/23 02:46:07;;;;;;;12.80;5.53;;;7.40;99.90;;;;;;6164123;23;20086;-76
2021/11/23 02:48:33;;;;;;;9.60;4.78;;;7.40;99.90;;;;;;6161845;23;20017;-76
2021/11/23 02:51:17;;;;;;;;;;;7.40;99.90;;;;;;6160008;23;20005;-76
2021/11/23 02:53:49;;;;;;;7.53;4.28;;;7.40;99.90;;;;;;6154895;23;19939;-75
2021/11/23 02:56:15;;;;;;;7.32;3.75;;;7.40;99.90;;;;;;6157369;23;20006;-77
2021/11/23 02:58:50;;;;;;;6.32;3.90;;;7.40;99.90;;;;;;6157102;23;20405;-76
2021/11/23 03:01:24;;;;;;;6.47;3.80;;;7.40;99.90;;;;;;6156298;23;20011;-76
2021/11/23 03:03:51;;;;;;;6.55;3.63;;;7.40;99.90;;;;;;6154808;23;20025;-76
2021/11/23 03:06:17;;;;;;;6.13;3.95;;;7.40;99.90;;;;;;6160119;23;20002;-76
2021/11/23 03:08:47;;;;;;;5.72;3.55;;;7.40;99.90;;;;;;6158276;23;20017;-76
2021/11/23 03:11:14;;;;;;;5.60;3.40;;;7.40;99.90;;;;;;6156247;23;20428;-75
2021/11/23 03:13:40;;;;;;;9.40;3.53;;;7.40;99.90;;;;;;6155807;23;20148;-76
2021/11/23 03:16:06;;;;;;;;;;;7.40;99.90;;;;;;6157821;23;20443;-76
2021/11/23 03:18:32;;;;;;;6.78;3.85;;;7.40;99.90;;;;;;6156944;23;19931;-76
2021/11/23 03:20:57;;;;;;;;;;;7.30;99.90;;;;;;6158023;23;20009;-76
2021/11/23 03:23:24;;;;;;;6.43;3.83;;;7.40;99.90;;;;;;6157126;23;19913;-76
2021/11/23 03:25:50;;;;;;;7.40;3.72;;;7.30;99.90;;;;;;6157375;23;20068;-76
2021/11/23 03:28:15;;;;;;;;;;;7.30;99.90;;;;;;6156641;23;20025;-76
2021/11/23 03:30:42;;;;;;;8.23;4.30;;;7.30;99.90;;;;;;6156716;23;19911;-76
2021/11/23 03:33:09;;;;;;;9.93;4.80;;;7.30;99.90;;;;;;6156188;23;20329;-76
2021/11/23 03:35:41;;;;;;;8.20;4.40;;;7.20;99.90;;;;;;6154676;23;20032;-77
2021/11/23 03:38:09;;;;;;;9.70;4.93;;;7.20;99.90;;;;;;6155634;23;20010;-77
2021/11/23 03:40:37;;;;;;;7.85;4.93;;;7.20;99.90;;;;;;6154980;23;20462;-76
2021/11/23 03:43:04;;;;;;;6.65;4.30;;;7.10;99.90;;;;;;6159154;23;20010;-76
2021/11/23 03:45:30;;;;;;;7.03;4.38;;;7.20;99.90;;;;;;6162594;23;20012;-77
2021/11/23 03:47:56;;;;;;;14.23;5.45;;;7.10;99.90;;;;;;6161430;23;20002;-77
2021/11/23 03:50:22;;;;;;;;;;;7.10;99.90;;;;;;6161004;23;20014;-76
2021/11/23 03:52:48;;;;;;;8.38;4.95;;;7.10;99.90;;;;;;6162884;23;19920;-77
2021/11/23 03:55:16;;;;;;;;;;;7.10;99.90;;;;;;6163158;23;20378;-75
2021/11/23 03:57:43;;;;;;;8.45;5.50;;;7.00;99.90;;;;;;6162418;23;19905;-77
2021/11/23 04:00:10;;;;;;;12.25;6.10;;;7.10;99.90;;;;;;6160420;23;20032;-76
2021/11/23 04:02:36;;;;;;;10.30;5.72;;;7.00;99.90;;;;;;6159596;23;20013;-76
2021/11/23 04:05:02;;;;;;;;;;;7.00;99.90;;;;;;6159822;23;20380;-76
2021/11/23 04:07:27;;;;;;;11.20;6.22;;;7.00;99.90;;;;;;6157782;23;19932;-76
2021/11/23 04:09:53;;;;;;;;;;;7.00;99.90;;;;;;6163159;23;20002;-76
2021/11/23 04:12:19;;;;;;;11.13;6.28;;;7.00;99.90;;;;;;6163423;23;19912;-77
2021/11/23 04:14:44;;;;;;;;;;;7.00;99.90;;;;;;6164147;23;20005;-77
2021/11/23 04:17:11;;;;;;;8.55;5.30;;;7.00;99.90;;;;;;6158416;23;19983;-77
2021/11/23 04:19:37;;;;;;;11.02;5.90;;;7.00;99.90;;;;;;6159574;23;20002;-76
2021/11/23 04:22:04;;;;;;;10.23;5.78;;;6.90;99.90;;;;;;6162435;23;20022;-77
2021/11/23 04:24:39;;;;;;;8.90;4.68;;;6.90;99.90;;;;;;6169928;23;20525;-77
2021/11/23 04:27:05;;;;;;;10.52;5.97;;;6.90;99.90;;;;;;6165377;23;20009;-77
2021/11/23 04:29:31;;;;;;;;;;;6.80;99.90;;;;;;6168174;23;20011;-77
2021/11/23 04:31:57;;;;;;;8.65;5.50;;;6.80;99.90;;;;;;6165016;23;19904;-76
2021/11/23 04:34:22;;;;;;;;;;;6.80;99.90;;;;;;6163858;23;20009;-76
2021/11/23 04:36:48;;;;;;;10.00;6.28;;;6.70;99.90;;;;;;6162818;23;19905;-77
2021/11/23 04:39:14;;;;;;;;;;;6.70;99.90;;;;;;6163157;23;20009;-77
2021/11/23 04:41:40;;;;;;;9.02;5.68;;;6.70;99.90;;;;;;6165175;23;19905;-78
2021/11/23 04:44:06;;;;;;;11.30;5.22;;;6.70;99.90;;;;;;6169679;23;20006;-77
2021/11/23 04:46:32;;;;;;;;;;;6.70;99.90;;;;;;6166766;23;20006;-79
2021/11/23 04:48:58;;;;;;;8.80;5.32;;;6.60;99.90;;;;;;6165401;23;19901;-77
2021/11/23 04:51:24;;;;;;;11.80;5.70;;;6.60;99.90;;;;;;6160945;23;20005;-77
2021/11/23 04:53:50;;;;;;;;;;;6.60;99.90;;;;;;6159072;23;20167;-77
2021/11/23 04:56:15;;;;;;;9.00;5.20;;;6.60;99.90;;;;;;6158594;23;19900;-76
2021/11/23 04:58:41;;;;;;;14.40;6.18;;;6.60;99.90;;;;;;6159929;23;20033;-76
2021/11/23 05:01:07;;;;;;;14.98;6.45;;;6.50;99.90;;;;;;6159579;23;20028;-76
2021/11/23 05:03:33;;;;;;;9.68;5.82;;;6.60;99.90;;;;;;6159085;23;20020;-77
2021/11/23 05:05:59;;;;;;;9.65;6.05;;;6.60;99.90;;;;;;6157345;23;20145;-76
2021/11/23 05:08:25;;;;;;;13.65;7.70;;;6.50;99.90;;;;;;6159123;23;20009;-76
2021/11/23 05:10:51;;;;;;;;;;;6.50;99.90;;;;;;6159850;23;20134;-76
2021/11/23 05:13:17;;;;;;;24.35;13.35;;;6.50;99.90;;;;;;6158521;23;19943;-77
2021/11/23 05:15:42;;;;;;;;;;;6.50;99.90;;;;;;6160628;23;20006;-76
2021/11/23 05:18:08;;;;;;;16.35;10.50;;;6.50;99.90;;;;;;6159000;23;19905;-77
2021/11/23 05:20:33;;;;;;;;;;;6.50;99.90;;;;;;6161000;23;20439;-76
2021/11/23 05:22:59;;;;;;;12.70;7.03;;;6.50;99.90;;;;;;6158412;23;19915;-76
2021/11/23 05:25:24;;;;;;;;;;;6.40;99.90;;;;;;6159419;23;20036;-77
2021/11/23 05:27:50;;;;;;;10.93;5.75;;;6.40;99.90;;;;;;6158078;23;20357;-77
2021/11/23 05:30:16;;;;;;;11.15;6.47;;;6.50;99.90;;;;;;6160042;23;20001;-76
2021/11/23 05:32:42;;;;;;;;;;;6.40;99.90;;;;;;6161230;23;20483;-77
2021/11/23 05:35:12;;;;;;;10.27;5.45;;;6.20;99.90;;;;;;6172092;23;19928;-77
2021/11/23 05:37:38;;;;;;;13.07;6.13;;;6.20;99.90;;;;;;6165922;23;20494;-77
2021/11/23 05:40:06;;;;;;;10.90;6.95;;;6.00;99.90;;;;;;6157786;23;20018;-76
2021/11/23 05:42:32;;;;;;;13.05;7.03;;;6.00;99.90;;;;;;6158502;23;20016;-77
2021/11/23 05:44:57;;;;;;;;;;;5.90;99.90;;;;;;6159480;23;20112;-76
2021/11/23 05:47:24;;;;;;;26.40;14.25;;;5.80;99.90;;;;;;6156548;23;19901;-76
2021/11/23 05:49:50;;;;;;;19.15;10.77;;;5.80;99.90;;;;;;6155041;23;20065;-76
2021/11/23 05:52:17;;;;;;;;;;;5.80;99.90;;;;;;6155717;23;20033;-75
2021/11/23 05:54:45;;;;;;;13.52;7.45;;;5.80;99.90;;;;;;6155384;23;19911;-76
2021/11/23 05:57:10;;;;;;;18.42;8.70;;;5.80;99.90;;;;;;6157061;23;20002;-75
2021/11/23 05:59:36;;;;;;;;;;;5.80;99.90;;;;;;6157126;23;20017;-76
2021/11/23 06:02:02;;;;;;;21.38;11.63;;;5.80;99.90;;;;;;6156543;23;20242;-76
2021/11/23 06:04:27;;;;;;;;;;;5.80;99.90;;;;;;6156016;23;20435;-76
2021/11/23 06:06:53;;;;;;;18.80;8.85;;;5.80;99.90;;;;;;6156517;23;19916;-76
2021/11/23 06:09:19;;;;;;;19.65;10.63;;;5.80;99.90;;;;;;6157159;23;20079;-76
2021/11/23 06:11:44;;;;;;;;;;;5.80;99.90;;;;;;6158542;23;20051;-76
2021/11/23 06:14:10;;;;;;;28.33;14.70;;;5.80;99.90;;;;;;6155061;23;19904;-76
2021/11/23 06:16:37;;;;;;;;;;;5.80;99.90;;;;;;6155674;23;20053;-76
2021/11/23 06:19:03;;;;;;;30.17;15.45;;;5.80;99.90;;;;;;6159872;23;19987;-77
2021/11/23 06:21:28;;;;;;;;;;;5.80;99.90;;;;;;6160974;23;20435;-77
2021/11/23 06:23:54;;;;;;;35.55;18.60;;;5.90;99.90;;;;;;6160041;23;19954;-77
2021/11/23 06:26:21;;;;;;;31.05;17.60;;;5.90;99.90;;;;;;6158772;23;19998;-76
2021/11/23 06:28:47;;;;;;;29.23;15.65;;;5.90;99.90;;;;;;6159731;23;20015;-77
2021/11/23 06:31:13;;;;;;;23.73;12.90;;;5.90;99.90;;;;;;6162928;23;20001;-77
2021/11/23 06:33:39;;;;;;;24.08;13.65;;;6.00;99.90;;;;;;6157208;23;20474;-76
2021/11/23 06:36:05;;;;;;;;;;;6.00;99.90;;;;;;6158207;23;19998;-76
2021/11/23 06:38:33;;;;;;;30.13;14.75;;;6.00;99.90;;;;;;6162145;23;20334;-78
2021/11/23 06:41:00;;;;;;;31.98;17.02;;;6.10;99.90;;;;;;6118307;23;20018;-77
2021/11/23 06:43:26;;;;;;;38.47;20.63;;;6.10;99.90;;;;;;6141287;23;20049;-78
2021/11/23 06:45:52;;;;;;;;;;;6.20;99.90;;;;;;6143145;23;20006;-78
2021/11/23 06:48:18;;;;;;;20.98;12.80;;;6.10;99.90;;;;;;6113782;23;19972;-76
2021/11/23 06:50:44;;;;;;;32.33;15.27;;;6.30;99.90;;;;;;6110787;23;20101;-77
2021/11/23 06:53:10;;;;;;;;;;;6.40;99.90;;;;;;6136585;23;20021;-77
2021/11/23 06:55:36;;;;;;;24.17;12.77;;;6.50;99.90;;;;;;6109366;23;19908;-77
2021/11/23 06:58:02;;;;;;;;;;;6.60;99.90;;;;;;6136826;23;20005;-77
2021/11/23 07:00:28;;;;;;;17.98;11.70;;;6.60;99.90;;;;;;6111262;23;19912;-77
2021/11/23 07:02:54;;;;;;;;;;;6.60;99.90;;;;;;6113077;23;20022;-78
2021/11/23 07:05:19;;;;;;;18.98;11.80;;;6.70;99.90;;;;;;6112128;23;19928;-78
2021/11/23 07:07:45;;;;;;;;;;;6.70;99.90;;;;;;6139382;23;20016;-77
2021/11/23 07:10:12;;;;;;;19.63;11.65;;;6.70;99.90;;;;;;6114128;23;19920;-77
2021/11/23 07:12:38;;;;;;;19.27;11.35;;;6.80;99.90;;;;;;6141035;23;20057;-77
2021/11/23 07:15:05;;;;;;;;;;;6.80;99.90;;;;;;6140473;23;20076;-77
2021/11/23 07:17:30;;;;;;;17.37;10.77;;;6.80;99.90;;;;;;6138302;23;19901;-76
2021/11/23 07:19:56;;;;;;;;;;;6.90;99.90;;;;;;6140239;23;20042;-77
2021/11/23 07:22:21;;;;;;;16.20;10.77;;;7.00;99.90;;;;;;6115152;23;20339;-77
2021/11/23 07:24:47;;;;;;;17.48;9.90;;;7.00;99.90;;;;;;6116312;23;20009;-78
2021/11/23 07:27:15;;;;;;;20.20;11.60;;;7.20;99.90;;;;;;6111137;23;20044;-77
2021/11/23 07:29:41;;;;;;;21.13;11.82;;;7.20;99.90;;;;;;6138064;23;19998;-76
2021/11/23 07:32:07;;;;;;;;;;;7.40;99.90;;;;;;6140399;23;20062;-78
2021/11/23 07:34:34;;;;;;;20.63;11.95;;;7.50;99.90;;;;;;6138652;23;19909;-77
2021/11/23 07:37:00;;;;;;;19.67;12.25;;;7.50;99.90;;;;;;6111351;23;20005;-77
2021/11/23 07:39:27;;;;;;;;;;;7.60;99.90;;;;;;6148192;23;20193;-77
2021/11/23 07:41:53;;;;;;;;;;;7.60;99.90;;;;;;6164756;23;20322;-77
2021/11/23 07:44:18;;;;;;;22.40;12.40;;;7.60;99.90;;;;;;6163031;23;19912;-77
2021/11/23 07:46:44;;;;;;;;;;;7.60;99.90;;;;;;6165602;23;20080;-77
2021/11/23 07:49:10;;;;;;;27.15;11.93;;;7.60;99.90;;;;;;6164736;23;19931;-76
2021/11/23 07:51:36;;;;;;;21.65;11.93;;;7.60;99.90;;;;;;6164569;23;20012;-77
2021/11/23 07:54:02;;;;;;;23.33;12.70;;;7.60;99.90;;;;;;6165456;23;20431;-77
2021/11/23 07:56:28;;;;;;;;;;;7.60;99.90;;;;;;6167183;23;20002;-77
2021/11/23 07:58:54;;;;;;;16.98;11.35;;;7.50;99.90;;;;;;6165874;23;19944;-77
2021/11/23 08:01:19;;;;;;;15.82;10.70;;;7.50;99.90;;;;;;6165730;23;20164;-76
2021/11/23 08:03:45;;;;;;;28.25;13.00;;;7.40;99.90;;;;;;6166434;23;20009;-77
2021/11/23 08:06:11;;;;;;;;;;;7.50;99.90;;;;;;6164844;23;20006;-76
2021/11/23 08:08:39;;;;;;;23.67;11.65;;;7.50;99.90;;;;;;6162769;23;19912;-77
2021/11/23 08:11:05;;;;;;;20.17;11.57;;;7.40;99.90;;;;;;6164347;23;20028;-76
2021/11/23 08:13:34;;;;;;;23.77;10.75;;;7.40;99.90;;;;;;6164306;23;20077;-77
2021/11/23 08:16:03;;;;;;;17.30;11.07;;;7.40;99.90;;;;;;6166588;23;20029;-77
2021/11/23 08:18:30;;;;;;;17.75;9.40;;;7.50;99.90;;;;;;6164027;23;20001;-77
2021/11/23 08:20:56;;;;;;;17.20;10.50;;;7.80;99.90;;;;;;6165522;23;20009;-77
2021/11/23 08:23:22;;;;;;;19.58;10.50;;;8.20;99.90;;;;;;6167892;23;20021;-79
2021/11/23 08:25:48;;;;;;;;;;;8.30;99.90;;;;;;6170307;23;20021;-78
2021/11/23 08:28:14;;;;;;;17.02;10.05;;;8.40;99.90;;;;;;6167071;23;19905;-78
2021/11/23 08:30:40;;;;;;;18.52;10.27;;;8.70;99.90;;;;;;6166910;23;20006;-79
2021/11/23 08:33:06;;;;;;;18.65;11.80;;;8.70;99.90;;;;;;6169047;23;20001;-77
2021/11/23 08:35:32;;;;;;;19.13;11.25;;;8.80;99.90;;;;;;6167633;23;20033;-79
2021/11/23 08:37:58;;;;;;;;;;;8.70;99.90;;;;;;6167460;23;20006;-77
2021/11/23 08:40:24;;;;;;;19.33;10.25;;;8.60;99.90;;;;;;6166323;23;20346;-77
2021/11/23 08:42:51;;;;;;;16.45;9.80;;;8.60;99.90;;;;;;6168886;23;20017;-78
2021/11/23 08:45:18;;;;;;;18.02;11.20;;;8.60;99.90;;;;;;6168145;23;20073;-78
2021/11/23 08:47:44;;;;;;;14.10;9.23;;;8.60;99.90;;;;;;6168139;23;20016;-78
2021/11/23 08:50:10;;;;;;;;;;;8.60;99.90;;;;;;6169689;23;20013;-78
2021/11/23 08:52:37;;;;;;;14.63;9.17;;;8.60;99.90;;;;;;6168844;23;19923;-77
2021/11/23 08:55:05;;;;;;;14.48;9.20;;;8.60;99.90;;;;;;6167638;23;20013;-78
2021/11/23 08:57:32;;;;;;;16.98;9.70;;;8.60;99.90;;;;;;6166392;23;20038;-78
2021/11/23 09:00:18;;;;;;;17.75;9.48;;;8.60;99.90;;;;;;6168834;23;20080;-78
2021/11/23 09:02:49;;;;;;;15.73;9.43;;;8.80;99.90;;;;;;6168263;23;20092;-79
2021/11/23 09:05:16;;;;;;;16.38;9.77;;;9.10;99.90;;;;;;6168767;23;20005;-78
2021/11/23 09:07:43;;;;;;;16.75;10.10;;;9.40;99.90;;;;;;6169720;23;20011;-78
2021/11/23 09:10:17;;;;;;;16.15;10.30;;;9.60;99.90;;;;;;6170723;23;19998;-77
2021/11/23 09:12:43;;;;;;;15.82;8.63;;;9.80;99.90;;;;;;6169669;23;20009;-78
2021/11/23 09:15:08;;;;;;;;;;;9.90;99.90;;;;;;6169172;23;20052;-77
2021/11/23 09:17:34;;;;;;;31.17;22.67;;;9.80;99.90;;;;;;6169103;23;19983;-78
2021/11/23 09:20:00;;;;;;;;;;;9.70;99.90;;;;;;6169312;23;20024;-78
2021/11/23 09:22:25;;;;;;;18.33;11.15;;;9.70;99.90;;;;;;6169121;23;19908;-78
2021/11/23 09:24:51;;;;;;;;;;;9.70;99.90;;;;;;6170475;23;20021;-78
2021/11/23 09:27:17;;;;;;;16.35;10.93;;;9.70;99.90;;;;;;6165291;23;19931;-77
2021/11/23 09:29:42;;;;;;;;;;;9.70;99.90;;;;;;6167948;23;20013;-78
2021/11/23 09:32:08;;;;;;;16.52;9.95;;;9.50;99.90;;;;;;6167792;23;19909;-78
2021/11/23 09:34:34;;;;;;;;;;;9.70;99.90;;;;;;6168166;23;20010;-78
2021/11/23 09:37:00;;;;;;;14.73;9.57;;;9.60;99.90;;;;;;6166129;23;19904;-78
2021/11/23 09:39:26;;;;;;;;;;;9.60;99.90;;;;;;6168596;23;20021;-78
2021/11/23 09:41:52;;;;;;;16.35;10.23;;;9.60;99.90;;;;;;6167222;23;19908;-77
2021/11/23 09:44:18;;;;;;;19.40;11.93;;;9.60;99.90;;;;;;6166591;23;20009;-78
2021/11/23 09:46:44;;;;;;;15.48;9.48;;;9.60;99.90;;;;;;6168724;23;20024;-78
2021/11/23 09:49:10;;;;;;;;;;;9.60;99.90;;;;;;6167153;23;20033;-77
2021/11/23 09:51:40;;;;;;;13.45;8.88;;;9.50;99.90;;;;;;6168703;23;19928;-78
2021/11/23 09:54:08;;;;;;;18.40;10.55;;;9.40;99.90;;;;;;6168495;23;20001;-78
2021/11/23 09:56:35;;;;;;;16.00;9.48;;;9.30;99.90;;;;;;6167448;23;20002;-78
2021/11/23 09:59:01;;;;;;;13.13;9.25;;;9.30;99.90;;;;;;6166536;23;20009;-78
2021/11/23 10:01:30;;;;;;;13.43;9.27;;;9.30;99.90;;;;;;6165008;23;20005;-78
2021/11/23 10:03:58;;;;;;;18.63;10.65;;;9.30;99.90;;;;;;6165612;23;20017;-78
2021/11/23 10:06:27;;;;;;;14.55;9.60;;;9.30;99.90;;;;;;6167366;23;20012;-78
2021/11/23 10:08:56;;;;;;;14.55;9.23;;;9.10;99.90;;;;;;6168004;23;20019;-78
2021/11/23 10:11:27;;;;;;;14.75;10.18;;;9.10;99.90;;;;;;6166891;23;20056;-78
2021/11/23 10:13:56;;;;;;;13.15;9.60;;;9.10;99.90;;;;;;6166982;23;20008;-78
2021/11/23 10:16:23;;;;;;;15.98;9.90;;;9.10;99.90;;;;;;6165665;23;20525;-78
2021/11/23 10:18:50;;;;;;;18.35;11.70;;;8.90;99.90;;;;;;6167608;23;20001;-78
2021/11/23 10:21:19;;;;;;;20.05;11.50;;;8.90;99.90;;;;;;6166806;23;20005;-77
2021/11/23 10:23:52;;;;;;;24.33;13.48;;;8.80;99.90;;;;;;6167313;23;20029;-78
2021/11/23 10:26:19;;;;;;;14.77;9.75;;;8.70;99.90;;;;;;6166909;23;20039;-78
2021/11/23 10:28:55;;;;;;;19.77;12.93;;;8.70;99.90;;;;;;6169607;23;20028;-78
2021/11/23 10:31:28;;;;;;;21.87;13.80;;;8.60;99.90;;;;;;6165863;23;20005;-77
2021/11/23 10:34:06;;;;;;;19.48;12.35;;;8.50;99.90;;;;;;6167890;23;20232;-77
2021/11/23 10:36:44;;;;;;;16.27;10.25;;;8.50;99.90;;;;;;6165923;23;20065;-78
2021/11/23 10:39:19;;;;;;;17.13;10.75;;;8.40;99.90;;;;;;6162597;23;20056;-77
2021/11/23 10:41:57;;;;;;;14.00;10.00;;;8.50;99.90;;;;;;6167876;23;20008;-78
2021/11/23 10:44:28;;;;;;;14.48;9.00;;;8.40;99.90;;;;;;6168393;23;20014;-78
2021/11/23 10:47:04;;;;;;;16.13;10.52;;;8.40;99.90;;;;;;6167651;23;19998;-78
2021/11/23 10:49:46;;;;;;;17.17;11.00;;;8.40;99.90;;;;;;6166168;23;20056;-77
2021/11/23 10:52:27;;;;;;;18.92;11.25;;;8.50;99.90;;;;;;6165705;23;20032;-78
2021/11/23 10:54:53;;;;;;;21.08;11.80;;;8.60;99.90;;;;;;6167228;23;20022;-78
2021/11/23 10:57:19;;;;;;;;;;;8.70;99.90;;;;;;6167438;23;20065;-78
2021/11/23 10:59:44;;;;;;;26.65;17.52;;;8.80;99.90;;;;;;6163796;23;19911;-78
2021/11/23 11:02:10;;;;;;;;;;;8.90;99.90;;;;;;6164852;23;20448;-77
2021/11/23 11:04:41;;;;;;;17.17;11.10;;;9.00;99.90;;;;;;6166288;23;19919;-77
2021/11/23 11:07:07;;;;;;;17.15;11.57;;;9.10;99.90;;;;;;6164718;23;20005;-77
2021/11/23 11:09:35;;;;;;;15.63;10.38;;;9.10;99.90;;;;;;6163635;23;20068;-78
2021/11/23 11:12:02;;;;;;;18.13;12.48;;;9.30;99.90;;;;;;6166482;23;20054;-78
2021/11/23 11:14:35;;;;;;;19.05;11.52;;;9.30;99.90;;;;;;6163960;23;20005;-78
2021/11/23 11:17:02;;;;;;;14.45;9.50;;;9.40;99.90;;;;;;6164946;23;20005;-78
2021/11/23 11:19:46;;;;;;;19.40;10.80;;;9.50;99.90;;;;;;6165076;23;20025;-77
2021/11/23 11:22:12;;;;;;;17.48;11.38;;;9.60;99.90;;;;;;6164443;23;20009;-78
2021/11/23 11:24:43;;;;;;;;;;;9.80;99.90;;;;;;6164499;23;20016;-78
2021/11/23 11:27:31;;;;;;;15.07;10.90;;;9.90;99.90;;;;;;6166617;23;19924;-78
2021/11/23 11:30:26;;;;;;;18.23;10.57;;;10.00;99.90;;;;;;6165841;23;20027;-78
2021/11/23 11:33:23;;;;;;;14.45;10.23;;;10.00;99.90;;;;;;6167010;23;20005;-78
2021/11/23 11:35:51;;;;;;;14.82;10.95;;;10.10;99.90;;;;;;6166030;23;19998;-78
2021/11/23 11:38:29;;;;;;;19.73;10.27;;;10.30;99.10;;;;;;6166600;23;20088;-78
2021/11/23 11:40:57;;;;;;;15.80;10.30;;;10.20;98.70;;;;;;6164634;23;20073;-78
2021/11/23 11:43:33;;;;;;;16.95;10.32;;;10.10;98.70;;;;;;6164992;23;20049;-78
2021/11/23 11:45:59;;;;;;;14.10;10.18;;;10.00;98.20;;;;;;6165117;23;20056;-78
2021/11/23 11:48:35;;;;;;;19.83;11.32;;;10.00;98.70;;;;;;6165287;23;20006;-78
2021/11/23 11:51:01;;;;;;;15.07;10.45;;;9.90;99.30;;;;;;6169964;23;20002;-79
2021/11/23 11:53:30;;;;;;;;;;;10.00;99.70;;;;;;6169705;23;20075;-79
2021/11/23 11:55:56;;;;;;;18.67;11.70;;;10.20;99.10;;;;;;6168670;23;19905;-78
2021/11/23 11:58:41;;;;;;;;;;;10.10;99.90;;;;;;6168835;23;20040;-79
2021/11/23 12:01:41;;;;;;;14.98;10.60;;;10.00;99.90;;;;;;6166752;23;19901;-78
2021/11/23 12:04:17;;;;;;;14.52;9.80;;;10.10;99.90;;;;;;6169785;23;20013;-78
2021/11/23 12:06:55;;;;;;;17.75;11.15;;;10.10;99.70;;;;;;6170277;23;20061;-78
2021/11/23 12:09:30;;;;;;;17.90;12.07;;;10.10;99.70;;;;;;6168058;23;20010;-79
2021/11/23 12:12:10;;;;;;;17.45;10.70;;;10.00;99.60;;;;;;6169624;23;20006;-79
2021/11/23 12:15:09;;;;;;;18.92;11.30;;;10.00;99.90;;;;;;6167063;23;20065;-78
2021/11/23 12:17:42;;;;;;;19.45;12.40;;;10.00;99.90;;;;;;6171605;23;20403;-78
2021/11/23 12:20:21;;;;;;;22.08;11.70;;;10.00;99.90;;;;;;6171912;23;20004;-78
2021/11/23 12:22:50;;;;;;;17.98;12.10;;;10.10;99.90;;;;;;6171929;23;20009;-78
2021/11/23 12:25:19;;;;;;;18.73;12.77;;;10.10;99.90;;;;;;6170741;23;20005;-78
2021/11/23 12:27:48;;;;;;;18.85;12.40;;;10.20;99.90;;;;;;6171054;23;19998;-78
2021/11/23 12:30:19;;;;;;;18.60;11.57;;;10.00;99.90;;;;;;6171976;23;20006;-78
2021/11/23 12:32:46;;;;;;;21.35;13.00;;;10.00;99.90;;;;;;6171850;23;20092;-78
2021/11/23 12:35:16;;;;;;;21.15;12.35;;;10.10;99.90;;;;;;6168398;23;20002;-79
2021/11/23 12:37:44;;;;;;;21.77;12.85;;;10.10;99.90;;;;;;6170844;23;20002;-82
2021/11/23 12:40:23;;;;;;;20.73;12.80;;;10.00;99.90;;;;;;6169556;23;20017;-79
2021/11/23 12:42:54;;;;;;;23.45;12.50;;;9.90;99.90;;;;;;6169692;23;20359;-78
2021/11/23 12:45:26;;;;;;;19.25;11.50;;;9.70;99.90;;;;;;6171767;23;19997;-79
2021/11/23 12:47:52;;;;;;;21.58;11.85;;;9.60;99.90;;;;;;6169447;23;20033;-78
2021/11/23 12:50:18;;;;;;;;;;;9.60;99.90;;;;;;6171725;23;20002;-78
2021/11/23 12:52:47;;;;;;;22.60;13.02;;;9.40;99.90;;;;;;6171122;23;19944;-78
2021/11/23 12:55:17;;;;;;;18.83;12.13;;;9.30;99.90;;;;;;6168588;23;20337;-78
2021/11/23 12:57:52;;;;;;;18.83;12.20;;;9.20;99.90;;;;;;6169015;23;20010;-79
2021/11/23 13:00:19;;;;;;;17.30;11.18;;;9.20;99.90;;;;;;6168145;23;20037;-78
2021/11/23 13:02:51;;;;;;;18.17;11.77;;;9.10;99.90;;;;;;6170182;23;20522;-78
2021/11/23 13:05:27;;;;;;;16.80;10.77;;;9.10;99.90;;;;;;6168594;23;20065;-78
2021/11/23 13:07:59;;;;;;;19.05;11.45;;;9.00;99.90;;;;;;6170274;23;20155;-78
2021/11/23 13:10:27;;;;;;;16.80;10.32;;;8.90;99.90;;;;;;6169792;23;20009;-79